• Join FlightAware (Why Join?)
  • Login
  • US Flag 
11:41AM EDT


 

Airport Tracker/Info


-or-


 

Live Flight TrackerFlight Track Log ✈ LAK674 ✈ 27-May-2013 ✈ KLWB - KMMU

Flight Track Log - Related Links

Times and Time Zones

All times are in EDT time to prevent confusion due to time zone crossing. See the LAK674 flight status page for this flight to view local times or setup timezone preferences in your user account.

Time Position Orientation Groundspeed Altitude Reporting Facility
EDT Latitude Longitude Course Direction KTS MPH feet Rate Location/Type
07:55PM 37.8697 -80.3139 86° East 264 304 6,100  Level Washington Center
07:56PM 37.8622 -80.2369 97° East 250 288 8,200 1,980 Climbing Washington Center
07:57PM 37.8678 -80.1453 86° East 241 277 10,100 2,040 Climbing Washington Center
07:58PM 38.1407 -79.8710 86° East  Level Estimated
07:58PM 37.8714 -80.0483 87° East 253 291 12,300  Level Washington Center
07:59PM 37.8733 -79.9378 89° East 278 320 14,800 2,100 Climbing Washington Center
08:00PM 37.8792 -79.8356 86° East 285 328 16,600 1,560 Climbing Washington Center
08:01PM 37.8828 -79.7306 87° East 290 334 18,000 1,500 Climbing Washington Center
08:02PM 37.8864 -79.6256 87° East 290 334 19,600 1,380 Climbing Washington Center
08:03PM 37.8900 -79.5150 88° East 296 341 20,900 1,380 Climbing Washington Center
08:04PM 37.8936 -79.4100 87° East 314 361 22,500 1,260 Climbing Washington Center
08:05PM 37.8972 -79.2944 88° East 321 369 23,500 1,080 Climbing Washington Center
08:06PM 37.9011 -79.1631 88° East 332 382 24,700 720 Climbing Washington Center
08:07PM 37.9067 -79.0500 86° East 338 389 25,000 840 Climbing Washington Center
08:08PM 37.9269 -78.9194 79° East 359 413 26,500 960 Climbing Washington Center
08:09PM 37.9433 -78.7806 81° East 365 420 27,000 600 Climbing Washington Center
08:10PM 37.9614 -78.6392 81° East 377 434 27,800 900 Climbing Washington Center
08:11PM 37.9750 -78.5106 82° East 384 442 28,900 540 Climbing Washington Center
08:12PM 37.9908 -78.3742 82° East 384 442 29,000 240 Climbing Washington Center
08:13PM 38.0083 -78.2431 80° East 403 464 29,500 960 Climbing Washington Center
08:14PM 38.0342 -78.1175 75° East 397 457 31,000 1,320 Climbing Washington Center
08:15PM 38.0864 -78.0111 58° Northeast 365 420 32,100 900 Climbing Washington Center
08:16PM 38.1406 -77.9044 57° Northeast 352 405 32,900 420 Climbing Washington Center
08:17PM 38.1928 -77.7925 59° Northeast 353 406 33,000  Climbing Washington Center
08:18PM 38.2531 -77.6778 56° Northeast 369 425 33,000  Level Washington Center
08:19PM 38.3094 -77.5603 59° Northeast 381 438 33,000 -360 Level Washington Center
08:20PM 38.3675 -77.4400 58° Northeast 387 445 32,300 -960 Descending Washington Center
08:21PM 38.4300 -77.3144 58° Northeast 401 461 31,100 -1,200 Descending Washington Center
08:22PM 38.4922 -77.1806 59° Northeast 413 475 30,000 -1,080 Descending Washington Center
08:23PM 38.5586 -77.0467 58° Northeast 434 499 29,000 -540 Descending Washington Center
08:24PM 38.6225 -76.9122 59° Northeast 434 499 29,000  Level Washington Center
08:25PM 38.6844 -76.7831 58° Northeast 434 499 29,000  Level Washington Center
08:26PM 38.7606 -76.6753 48° Northeast 421 484 29,000  Level Washington Center
08:27PM 38.8467 -76.5806 41° Northeast 401 461 29,000 -780 Level Washington Center
08:28PM 38.9308 -76.4828 42° Northeast 401 461 27,500 -1,680 Descending Washington Center
08:29PM 39.0192 -76.3825 41° Northeast 406 467 25,700 -1,620 Descending Washington Center
08:30PM 39.0989 -76.2897 42° Northeast 401 461 24,400 -900 Descending Washington Center
08:31PM 39.1786 -76.1967 42° Northeast 389 448 24,000 -240 Descending Washington Center
08:32PM 39.2583 -76.1036 42° Northeast 382 440 24,000 -960 Level Washington Center
08:33PM 39.3439 -76.0236 36° Northeast 382 440 22,100 -2,040 Descending Washington Center
08:34PM 39.4275 -75.9489 35° Northeast 370 426 19,900 -2,160 Descending Washington Center
08:35PM 39.5028 -75.8714 38° Northeast 356 410 17,900 -1,860 Descending Washington Center
08:37PM 39.6167 -75.7667 35° Northeast 309 356 15,100 -1,500 Descending Philadelphia TRACON
08:38PM 39.7000 -75.7000 32° Northeast 317 365 14,000 -1,020 Descending Philadelphia TRACON
08:39PM 39.7667 -75.6167 44° Northeast 328 377 13,100 -540 Descending Philadelphia TRACON
08:40PM 39.8333 -75.5500 38° Northeast 311 358 13,000 -60 Descending Philadelphia TRACON
08:41PM 39.9167 -75.5000 25° Northeast 300 345 13,000  Level Philadelphia TRACON
08:42PM 39.9833 -75.4333 37° Northeast 319 367 13,000  Level Philadelphia TRACON
08:43PM 40.0500 -75.3667 37° Northeast 329 379 13,000  Level Philadelphia TRACON
08:44PM 40.1167 -75.3000 37° Northeast 320 368 13,000 -540 Level Philadelphia TRACON
08:45PM 40.2000 -75.2333 31° Northeast 315 362 12,000 -1,500 Descending Philadelphia TRACON
08:47PM 40.3500 -75.0667 40° Northeast 294 338 7,900 -1,620 Descending New York TRACON
08:48PM 40.4167 -74.9833 44° Northeast 273 314 6,500 -1,320 Descending New York TRACON
08:49PM 40.4500 -74.9167 57° Northeast 258 297 5,300 -1,200 Descending New York TRACON
08:50PM 40.5000 -74.8500 45° Northeast 255 293 4,200 -660 Descending New York TRACON
08:51PM 40.5500 -74.7833 45° Northeast 260 299 4,000 -120 Descending New York TRACON
08:52PM 40.6000 -74.7167 45° Northeast 256 295 4,000 -300 Level New York TRACON
08:53PM 40.6667 -74.6500 37° Northeast 260 299 3,500 -540 Descending New York TRACON
08:54PM 40.7167 -74.6000 37° Northeast 256 295 3,000 -720 Descending New York TRACON
08:55PM 40.7667 -74.5333 45° Northeast 238 274 2,100 -540 Descending New York TRACON
08:56PM 40.8000 -74.4833 49° Northeast 212 244 2,000 -360 Descending New York TRACON
08:57PM 40.8333 -74.4333 49° Northeast 197 227 1,500 -480 Descending New York TRACON
08:58PM 40.8333 -74.3833 90° East 166 191 1,100 -420 Descending New York TRACON
09:00PM 40.7993 -74.4149 194° South  Level Estimated